Nantasket Beach, Massachusetts
Current Conditions -  °F | °C
As of 5:54 PM on Thursday 18 Dec 2014 (Local Time) from KBOS Reporting Station
Scattered Clouds Scattered Clouds  
Wind Chill: 34°   Ceiling: Unl
Heat Index: 41°   Visibility: 10mi
Dew Point: 28°   Wind: 12mph
Humidity: 60%   Direction: 280°W
Pressure: 29.83"   Gusts: NA
Location:  42.2829°N, 70.8734°W
Report Text: KBOS 182254Z 28010KT 10SM SCT040 05/M02 A2983 RMK AO2 SLP099 T00501022
Loading
Personal Weather Stations






























Interactive Weather Map New forecast layout! Learn more

10-Day Weather Forecast

Advertisements
Track Severe Weather on mobile